createdAt,value
2017-07-17T00:01:07.668Z,5.83
2017-07-17T00:03:36.050Z,7.00
2017-07-17T00:06:04.433Z,5.47
2017-07-17T00:08:33.138Z,6.17
2017-07-17T00:11:02.288Z,5.50
2017-07-17T00:13:30.678Z,5.50
2017-07-17T00:15:59.497Z,5.30
2017-07-17T00:18:28.656Z,4.33
2017-07-17T00:20:57.060Z,5.57
2017-07-17T00:23:25.670Z,6.37
2017-07-17T00:25:54.051Z,4.20
2017-07-17T00:28:22.441Z,7.30
2017-07-17T00:30:51.224Z,7.87
2017-07-17T00:33:19.617Z,6.07
2017-07-17T00:35:48.015Z,5.07
2017-07-17T00:38:16.652Z,8.57
2017-07-17T00:40:45.061Z,7.00
2017-07-17T00:43:13.445Z,6.27
2017-07-17T00:45:42.034Z,6.03
2017-07-17T00:48:10.413Z,5.07
2017-07-17T00:50:38.798Z,6.47
2017-07-17T00:53:07.251Z,6.17
2017-07-17T00:55:35.291Z,7.30
2017-07-17T00:58:04.449Z,5.40
2017-07-17T01:00:32.786Z,6.73
2017-07-17T01:03:01.165Z,6.67
2017-07-17T01:05:29.564Z,7.20
2017-07-17T01:07:58.202Z,6.77
2017-07-17T01:10:27.367Z,5.10
2017-07-17T01:12:55.760Z,5.13
2017-07-17T01:15:24.373Z,5.77
2017-07-17T01:17:52.754Z,6.30
2017-07-17T01:20:21.152Z,5.57
2017-07-17T01:22:49.656Z,6.07
2017-07-17T01:25:18.046Z,9.00
2017-07-17T01:27:46.436Z,5.80
2017-07-17T01:30:14.879Z,7.33
2017-07-17T01:32:43.289Z,5.63
2017-07-17T01:35:11.680Z,5.77
2017-07-17T01:37:40.474Z,6.07
2017-07-17T01:40:09.650Z,5.03
2017-07-17T01:42:38.045Z,5.10
2017-07-17T01:45:07.240Z,5.57
2017-07-17T01:47:36.383Z,5.07
2017-07-17T01:50:04.798Z,5.97
2017-07-17T01:52:33.223Z,6.07
2017-07-17T01:55:01.613Z,6.37
2017-07-17T01:57:29.672Z,5.13
2017-07-17T01:59:58.223Z,5.03
2017-07-17T02:02:27.369Z,5.17
2017-07-17T02:04:55.781Z,6.77
2017-07-17T02:07:23.992Z,6.17
2017-07-17T02:09:52.381Z,5.67
2017-07-17T02:12:20.757Z,7.10
2017-07-17T02:14:49.205Z,5.60
2017-07-17T02:17:17.594Z,7.83
2017-07-17T02:19:46.748Z,6.13
2017-07-17T02:22:15.363Z,6.50
2017-07-17T02:24:43.736Z,5.77
2017-07-17T02:27:12.111Z,5.67
2017-07-17T02:29:40.659Z,8.10
2017-07-17T02:32:09.045Z,6.50
2017-07-17T02:34:37.448Z,6.67
2017-07-17T02:37:05.896Z,6.20
2017-07-17T02:39:34.414Z,6.30
2017-07-17T02:42:03.800Z,6.50
2017-07-17T02:44:32.250Z,6.17
2017-07-17T02:47:00.649Z,7.13
2017-07-17T02:49:29.060Z,11.10
2017-07-17T02:51:58.293Z,7.20
2017-07-17T02:54:26.674Z,7.13
2017-07-17T02:56:55.065Z,5.80
2017-07-17T02:59:23.709Z,5.87
2017-07-17T03:01:52.865Z,6.83
2017-07-17T03:04:21.296Z,5.83
2017-07-17T03:06:49.940Z,5.90
2017-07-17T03:09:18.333Z,6.30
2017-07-17T03:11:47.520Z,11.27
2017-07-17T03:14:16.714Z,7.33
2017-07-17T03:16:45.105Z,7.13
2017-07-17T03:19:14.276Z,6.63
2017-07-17T03:21:42.693Z,7.10
2017-07-17T03:24:16.776Z,7.40
2017-07-17T03:26:45.186Z,7.70
2017-07-17T03:29:13.564Z,7.00
2017-07-17T03:31:42.715Z,7.67
2017-07-17T03:34:11.329Z,7.90
2017-07-17T03:36:40.487Z,6.67
2017-07-17T03:39:08.883Z,7.13
2017-07-17T03:41:37.292Z,7.13
2017-07-17T03:44:06.448Z,7.50
2017-07-17T03:46:35.115Z,8.13
2017-07-17T03:49:03.626Z,8.43
2017-07-17T03:51:32.090Z,8.30
2017-07-17T03:54:00.469Z,7.10
2017-07-17T03:56:29.578Z,13.50
2017-07-17T03:58:57.976Z,7.67
2017-07-17T04:01:26.381Z,8.77
2017-07-17T04:03:54.824Z,8.70
2017-07-17T04:06:23.288Z,7.47
2017-07-17T04:08:51.698Z,8.00
2017-07-17T04:11:21.319Z,7.87
2017-07-17T04:13:49.705Z,8.50
2017-07-17T04:16:18.093Z,7.20
2017-07-17T04:18:46.738Z,7.57
2017-07-17T04:21:15.894Z,8.80
2017-07-17T04:23:44.277Z,9.00
2017-07-17T04:26:12.808Z,8.37
2017-07-17T04:28:41.204Z,8.70
2017-07-17T04:31:09.610Z,8.60
2017-07-17T04:33:38.260Z,7.10
2017-07-17T04:36:06.665Z,9.40
2017-07-17T04:38:35.073Z,7.93
2017-07-17T04:41:03.692Z,9.90
2017-07-17T04:43:32.101Z,8.10
2017-07-17T04:46:00.521Z,10.17
2017-07-17T04:48:29.045Z,11.50
2017-07-17T04:50:57.451Z,10.53
2017-07-17T04:53:25.846Z,10.23
2017-07-17T04:55:54.264Z,9.37
2017-07-17T04:58:22.684Z,9.13
2017-07-17T05:00:51.313Z,11.77
2017-07-17T05:03:19.735Z,12.50
2017-07-17T05:05:48.136Z,9.23
2017-07-17T05:08:16.526Z,9.10
2017-07-17T05:10:45.143Z,9.63
2017-07-17T05:13:14.304Z,9.83
2017-07-17T05:15:42.693Z,9.37
2017-07-17T05:18:11.119Z,11.30
2017-07-17T05:20:39.494Z,9.77
2017-07-17T05:23:07.891Z,9.20
2017-07-17T05:25:36.542Z,9.83
2017-07-17T05:28:04.953Z,9.27
2017-07-17T05:30:33.363Z,11.30
2017-07-17T05:33:01.911Z,11.47
2017-07-17T05:35:30.307Z,10.43
2017-07-17T05:37:58.714Z,10.07
2017-07-17T05:40:27.535Z,9.00
2017-07-17T05:42:55.945Z,13.83
2017-07-17T05:45:24.352Z,10.17
2017-07-17T05:47:52.863Z,10.63
2017-07-17T05:50:21.273Z,10.67
2017-07-17T05:52:49.660Z,9.47
2017-07-17T05:55:18.305Z,9.70
2017-07-17T05:57:46.693Z,9.83
2017-07-17T06:00:15.086Z,9.83
2017-07-17T06:02:43.607Z,10.47
2017-07-17T06:05:12.018Z,10.33
2017-07-17T06:07:41.167Z,9.43
2017-07-17T06:10:09.803Z,12.10
2017-07-17T06:12:38.213Z,13.43
2017-07-17T06:15:06.281Z,11.10
2017-07-17T06:17:35.049Z,12.00
2017-07-17T06:20:03.442Z,13.30
2017-07-17T06:22:31.827Z,9.20
2017-07-17T06:25:00.276Z,14.80
2017-07-17T06:27:28.666Z,12.50
2017-07-17T06:29:57.087Z,17.80
2017-07-17T06:32:25.543Z,13.37
2017-07-17T06:34:53.956Z,11.53
2017-07-17T06:37:22.344Z,12.37
2017-07-17T06:39:50.777Z,10.53
2017-07-17T06:42:19.161Z,12.13
2017-07-17T06:44:47.555Z,11.87
2017-07-17T06:47:15.975Z,12.87
2017-07-17T06:49:45.130Z,8.37
2017-07-17T06:52:13.518Z,12.27
2017-07-17T06:54:42.522Z,14.20
2017-07-17T06:57:11.700Z,14.10
2017-07-17T06:59:40.097Z,13.53
2017-07-17T07:02:09.518Z,13.33
2017-07-17T07:04:38.682Z,15.23
2017-07-17T07:07:07.842Z,16.10
2017-07-17T07:09:36.352Z,16.00
2017-07-17T07:12:04.765Z,14.33
2017-07-17T07:14:33.938Z,16.77
2017-07-17T07:17:02.525Z,11.50
2017-07-17T07:19:31.707Z,13.37
2017-07-17T07:22:00.169Z,13.80
2017-07-17T07:24:28.725Z,14.90
2017-07-17T07:26:57.138Z,15.83
2017-07-17T07:29:25.760Z,14.00
2017-07-17T07:31:54.998Z,20.13
2017-07-17T07:34:23.222Z,14.60
2017-07-17T07:36:51.654Z,16.37
2017-07-17T07:39:20.097Z,18.07
2017-07-17T07:41:49.252Z,18.27
2017-07-17T07:44:17.641Z,16.50
2017-07-17T07:46:46.269Z,25.40
2017-07-17T07:49:14.658Z,16.87
2017-07-17T07:51:43.048Z,18.60
2017-07-17T07:54:11.581Z,17.37
2017-07-17T07:56:39.976Z,16.50
2017-07-17T07:59:09.131Z,17.87
2017-07-17T08:01:37.971Z,13.07
2017-07-17T08:04:06.370Z,12.17
2017-07-17T08:06:34.777Z,11.90
2017-07-17T08:09:02.999Z,10.63
2017-07-17T08:11:31.387Z,10.53
2017-07-17T08:13:59.800Z,7.30
2017-07-17T08:16:28.407Z,5.63
2017-07-17T08:18:56.788Z,4.50
2017-07-17T08:21:25.186Z,4.70
2017-07-17T08:23:54.527Z,4.53
2017-07-17T08:26:22.923Z,4.50
2017-07-17T08:28:51.344Z,4.47
2017-07-17T08:31:20.519Z,4.80
2017-07-17T08:33:49.027Z,4.93
2017-07-17T08:36:18.180Z,4.43
2017-07-17T08:38:46.820Z,2.60
2017-07-17T08:41:15.217Z,2.07
2017-07-17T08:43:43.603Z,2.27
2017-07-17T08:46:12.252Z,1.70
2017-07-17T08:48:40.637Z,1.47
2017-07-17T08:51:09.022Z,1.60
2017-07-17T08:53:37.537Z,1.17
2017-07-17T08:56:05.941Z,4.50
2017-07-17T08:58:34.640Z,1.40
2017-07-17T09:01:03.123Z,2.50
2017-07-17T09:03:32.274Z,2.10
2017-07-17T09:06:00.698Z,2.30
2017-07-17T09:08:29.984Z,2.50
2017-07-17T09:10:58.634Z,2.33
2017-07-17T09:13:27.022Z,3.03
2017-07-17T09:15:55.465Z,2.77
2017-07-17T09:18:23.960Z,3.90
2017-07-17T09:20:52.370Z,1.17
2017-07-17T09:23:20.983Z,1.00
2017-07-17T09:25:50.142Z,0.83
2017-07-17T09:28:18.573Z,1.07
2017-07-17T09:30:47.243Z,1.67
2017-07-17T09:33:16.403Z,1.70
2017-07-17T09:35:44.793Z,1.97
2017-07-17T09:38:13.302Z,2.63
2017-07-17T09:40:42.490Z,2.37
2017-07-17T09:43:11.850Z,2.57
2017-07-17T09:45:40.353Z,2.83
2017-07-17T09:48:09.529Z,2.90
2017-07-17T09:50:38.177Z,3.23
2017-07-17T09:53:06.772Z,3.20
2017-07-17T09:55:35.147Z,3.80
2017-07-17T09:58:03.536Z,3.23
2017-07-17T10:00:31.805Z,3.10
2017-07-17T10:03:00.286Z,3.33
2017-07-17T10:05:28.674Z,3.83
2017-07-17T10:07:57.142Z,3.47
2017-07-17T10:10:25.557Z,2.57
2017-07-17T10:12:53.931Z,3.80
2017-07-17T10:15:22.389Z,3.93
2017-07-17T10:17:50.784Z,2.83
2017-07-17T10:20:19.185Z,2.90
2017-07-17T10:22:48.398Z,3.73
2017-07-17T10:25:17.597Z,2.73
2017-07-17T10:27:45.992Z,2.70
2017-07-17T10:30:14.532Z,3.43
2017-07-17T10:32:42.922Z,3.27
2017-07-17T10:35:11.295Z,4.60
2017-07-17T10:37:39.701Z,4.67
2017-07-17T10:40:08.113Z,3.73
2017-07-17T10:42:36.511Z,3.37
2017-07-17T10:45:05.155Z,3.70
2017-07-17T10:47:33.567Z,3.77
2017-07-17T10:50:02.136Z,3.90
2017-07-17T10:52:30.571Z,4.43
2017-07-17T10:54:59.749Z,5.00
2017-07-17T10:57:28.166Z,4.00
2017-07-17T10:59:56.659Z,4.70
2017-07-17T11:02:25.048Z,4.97
2017-07-17T11:04:53.438Z,4.77
2017-07-17T11:07:22.068Z,6.10
2017-07-17T11:09:51.238Z,7.13
2017-07-17T11:12:19.636Z,7.60
2017-07-17T11:14:48.813Z,7.40
2017-07-17T11:17:17.210Z,8.53
2017-07-17T11:19:46.372Z,7.93
2017-07-17T11:22:14.992Z,7.50
2017-07-17T11:24:44.152Z,8.07
2017-07-17T11:27:12.542Z,10.53
2017-07-17T11:29:41.153Z,9.20
2017-07-17T11:32:10.312Z,9.00
2017-07-17T11:34:38.700Z,9.57
2017-07-17T11:37:07.313Z,8.63
2017-07-17T11:39:36.478Z,7.73
2017-07-17T11:42:04.875Z,8.47
2017-07-17T11:44:34.282Z,9.53
2017-07-17T11:57:19.030Z,7.90
2017-07-17T11:59:47.819Z,8.17
2017-07-17T12:02:15.856Z,8.30
2017-07-17T12:04:45.008Z,8.43
2017-07-17T12:07:13.445Z,7.60
2017-07-17T12:09:43.784Z,7.77
2017-07-17T12:12:12.176Z,7.37
2017-07-17T12:14:40.633Z,8.40
2017-07-17T12:17:09.250Z,8.33
2017-07-17T12:19:37.635Z,8.30
2017-07-17T12:22:06.265Z,7.67
2017-07-17T12:24:34.667Z,7.60
2017-07-17T12:27:03.067Z,8.10
2017-07-17T12:29:31.933Z,8.10
2017-07-17T12:32:00.323Z,7.30
2017-07-17T12:34:28.725Z,7.40
2017-07-17T12:36:57.261Z,9.00
2017-07-17T12:39:25.655Z,9.43
2017-07-17T12:41:54.058Z,9.77
2017-07-17T12:44:22.703Z,9.33
2017-07-17T12:46:51.882Z,7.70
2017-07-17T12:49:20.526Z,9.73
2017-07-17T12:51:49.116Z,11.13
2017-07-17T12:54:17.326Z,12.63
2017-07-17T12:56:46.497Z,13.40
2017-07-17T12:59:15.001Z,14.70
2017-07-17T13:01:44.173Z,11.10
2017-07-17T13:04:12.577Z,12.20
2017-07-17T13:06:41.806Z,10.87
2017-07-17T13:09:10.212Z,8.70
2017-07-17T13:11:38.601Z,11.47
2017-07-17T13:14:07.079Z,12.00
2017-07-17T13:16:35.470Z,13.60
2017-07-17T13:19:03.891Z,12.93
2017-07-17T13:21:32.354Z,13.53
2017-07-17T13:24:00.900Z,12.03
2017-07-17T13:26:29.304Z,12.90
2017-07-17T13:28:57.912Z,12.30
2017-07-17T13:31:26.323Z,11.50
2017-07-17T13:33:54.721Z,10.10
2017-07-17T13:36:23.162Z,12.00
2017-07-17T13:38:51.571Z,11.87
2017-07-17T13:41:19.980Z,11.77
2017-07-17T13:43:49.313Z,11.87
2017-07-17T13:46:17.725Z,12.00
2017-07-17T13:48:46.117Z,12.93
2017-07-17T13:51:14.526Z,8.97
2017-07-17T13:53:43.679Z,8.80
2017-07-17T13:56:12.079Z,10.33
2017-07-17T13:58:40.606Z,8.80
2017-07-17T14:01:08.993Z,8.63
2017-07-17T14:03:37.407Z,9.57
2017-07-17T14:06:05.873Z,8.93
2017-07-17T14:08:34.291Z,10.23
2017-07-17T14:11:03.450Z,10.10
2017-07-17T14:13:31.880Z,11.87
2017-07-17T14:16:01.040Z,10.40
2017-07-17T14:18:29.428Z,12.87
2017-07-17T14:20:57.831Z,11.50
2017-07-17T14:23:26.220Z,9.40
2017-07-17T14:25:54.610Z,10.20
2017-07-17T14:28:23.030Z,9.77
2017-07-17T14:30:51.435Z,12.93
2017-07-17T14:33:19.836Z,7.57
2017-07-17T14:35:48.276Z,11.43
2017-07-17T14:38:16.707Z,10.07
2017-07-17T14:40:45.109Z,11.90
2017-07-17T14:43:13.778Z,12.37
2017-07-17T14:45:42.178Z,10.97
2017-07-17T14:48:10.569Z,8.50
2017-07-17T14:50:39.154Z,11.50
2017-07-17T14:53:07.552Z,10.07
2017-07-17T14:55:35.934Z,8.30
2017-07-17T14:58:05.547Z,10.43
2017-07-17T15:00:33.941Z,13.10
2017-07-17T15:03:02.340Z,8.70
2017-07-17T15:05:30.759Z,9.17
2017-07-17T15:07:59.154Z,10.20
2017-07-17T15:10:28.352Z,10.70
2017-07-17T15:12:56.963Z,7.30
2017-07-17T15:15:25.351Z,7.33
2017-07-17T15:17:53.746Z,7.17
2017-07-17T15:20:22.272Z,9.47
2017-07-17T15:22:51.429Z,5.67
2017-07-17T15:25:19.839Z,5.47
2017-07-17T15:27:49.046Z,9.70
2017-07-17T15:30:18.216Z,5.70
2017-07-17T15:32:46.605Z,7.37
2017-07-17T15:35:15.009Z,5.90
2017-07-17T15:37:43.427Z,8.10
2017-07-17T15:40:11.850Z,7.13
2017-07-17T15:42:41.047Z,6.83
2017-07-17T15:45:09.476Z,6.77
2017-07-17T15:47:37.879Z,5.77
2017-07-17T15:50:06.318Z,5.17
2017-07-17T15:52:34.531Z,8.87
2017-07-17T15:55:02.916Z,4.53
2017-07-17T15:57:31.339Z,5.90
2017-07-17T15:59:59.720Z,6.30
2017-07-17T16:02:28.123Z,5.30
2017-07-17T16:04:56.531Z,5.57
2017-07-17T16:07:24.950Z,5.13
2017-07-17T16:09:54.012Z,6.37
2017-07-17T16:12:22.558Z,5.33
2017-07-17T16:14:50.937Z,4.27
2017-07-17T16:17:19.351Z,4.30
2017-07-17T16:19:47.754Z,5.57
2017-07-17T16:22:16.166Z,6.43
2017-07-17T16:24:44.591Z,4.93
2017-07-17T16:27:12.992Z,5.20
2017-07-17T16:29:41.394Z,4.07
2017-07-17T16:32:09.766Z,3.83
2017-07-17T16:34:38.260Z,5.50
2017-07-17T16:37:06.663Z,4.50
2017-07-17T16:39:35.079Z,3.77
2017-07-17T16:42:03.511Z,4.20
2017-07-17T16:44:31.905Z,3.43
2017-07-17T16:47:00.330Z,5.20
2017-07-17T16:49:28.750Z,3.97
2017-07-17T16:51:57.139Z,5.17
2017-07-17T16:54:25.529Z,5.70
2017-07-17T16:56:53.937Z,3.00
2017-07-17T16:59:22.334Z,4.80
2017-07-17T17:01:50.784Z,3.07
2017-07-17T17:04:19.208Z,3.67
2017-07-17T17:06:47.637Z,3.50
2017-07-17T17:09:16.787Z,4.37
2017-07-17T17:11:45.212Z,4.40
2017-07-17T17:14:14.374Z,5.03
2017-07-17T17:16:42.766Z,3.73
2017-07-17T17:19:11.177Z,5.83
2017-07-17T17:21:39.605Z,3.63
2017-07-17T17:24:08.012Z,9.07
2017-07-17T17:26:36.442Z,5.30
2017-07-17T17:29:04.878Z,7.70
2017-07-17T17:31:34.053Z,5.30
2017-07-17T17:34:02.520Z,6.40
2017-07-17T17:36:30.917Z,13.63
2017-07-17T17:38:59.309Z,4.13
2017-07-17T17:41:27.715Z,3.17
2017-07-17T17:43:56.122Z,9.87
2017-07-17T17:46:24.554Z,3.50
2017-07-17T17:48:52.984Z,4.07
2017-07-17T17:51:21.404Z,5.73
2017-07-17T17:53:50.573Z,4.40
2017-07-17T17:56:19.661Z,4.70
2017-07-17T17:58:48.046Z,5.37
2017-07-17T18:01:16.441Z,4.10
2017-07-17T18:03:44.873Z,4.50
2017-07-17T18:06:13.290Z,3.43
2017-07-17T18:08:41.666Z,5.10
2017-07-17T18:11:10.115Z,4.17
2017-07-17T18:13:38.516Z,3.83
2017-07-17T18:16:06.941Z,4.37
2017-07-17T18:18:35.374Z,3.77
2017-07-17T18:21:03.772Z,6.23
2017-07-17T18:23:32.170Z,4.40
2017-07-17T18:26:00.588Z,3.47
2017-07-17T18:28:28.985Z,3.70
2017-07-17T18:30:57.374Z,3.80
2017-07-17T18:33:25.800Z,4.30
2017-07-17T18:35:54.206Z,3.10
2017-07-17T18:38:22.610Z,6.10
2017-07-17T18:40:51.012Z,5.40
2017-07-17T18:43:20.188Z,3.97
2017-07-17T18:45:48.585Z,3.77
2017-07-17T18:48:16.999Z,3.80
2017-07-17T18:50:45.399Z,3.37
2017-07-17T18:53:13.795Z,3.30
2017-07-17T18:55:42.207Z,3.53
2017-07-17T18:58:10.599Z,3.43
2017-07-17T19:00:39.016Z,4.00
2017-07-17T19:03:07.522Z,3.90
2017-07-17T19:05:35.915Z,5.97
2017-07-17T19:08:05.167Z,6.40
2017-07-17T19:10:33.625Z,4.83
2017-07-17T19:13:02.016Z,2.50
2017-07-17T19:15:30.071Z,7.43
2017-07-17T19:17:58.495Z,7.90
2017-07-17T19:20:26.910Z,3.80
2017-07-17T19:22:56.097Z,3.23
2017-07-17T19:25:24.695Z,4.10
2017-07-17T19:27:53.108Z,3.63
2017-07-17T19:30:21.505Z,5.73
2017-07-17T19:32:49.947Z,4.23
2017-07-17T19:35:18.354Z,3.30
2017-07-17T19:37:46.761Z,4.67
2017-07-17T19:40:15.198Z,2.57
2017-07-17T19:42:43.595Z,6.50
2017-07-17T19:45:11.999Z,2.73
2017-07-17T19:47:42.886Z,4.80
2017-07-17T19:50:11.290Z,2.90
2017-07-17T19:52:39.696Z,4.57
2017-07-17T19:55:08.112Z,2.20
2017-07-17T19:57:36.511Z,5.83
2017-07-17T20:00:04.947Z,5.57
2017-07-17T20:02:33.372Z,5.47
2017-07-17T20:05:01.770Z,5.60
2017-07-17T20:07:31.118Z,12.53
2017-07-17T20:09:59.544Z,6.63
2017-07-17T20:12:27.936Z,4.37
2017-07-17T20:14:56.341Z,3.53
2017-07-17T20:17:24.761Z,3.20
2017-07-17T20:19:53.147Z,2.60
2017-07-17T20:22:21.538Z,5.37
2017-07-17T20:24:50.631Z,1.80
2017-07-17T20:27:19.063Z,2.80
2017-07-17T20:29:47.439Z,4.30
2017-07-17T20:32:15.859Z,4.37
2017-07-17T20:34:44.250Z,2.53
2017-07-17T20:37:12.648Z,3.00
2017-07-17T20:39:41.055Z,2.87
2017-07-17T20:42:09.458Z,2.30
2017-07-17T20:44:37.879Z,3.30
2017-07-17T20:47:06.354Z,5.20
2017-07-17T20:49:34.758Z,3.27
2017-07-17T20:52:03.920Z,2.43
2017-07-17T20:54:32.370Z,6.23
2017-07-17T20:57:00.790Z,2.10
2017-07-17T20:59:29.194Z,7.33
2017-07-17T21:01:58.370Z,3.13
2017-07-17T21:04:26.772Z,3.50
2017-07-17T21:06:55.186Z,6.60
2017-07-17T21:09:23.599Z,2.40
2017-07-17T21:11:52.003Z,5.13
2017-07-17T21:14:21.203Z,3.30
2017-07-17T21:16:50.377Z,4.70
2017-07-17T21:19:18.769Z,18.87
2017-07-17T21:21:47.921Z,3.40
2017-07-17T21:24:16.327Z,9.97
2017-07-17T21:26:44.740Z,2.37
2017-07-17T21:29:13.149Z,4.40
2017-07-17T21:31:41.558Z,4.20
2017-07-17T21:34:09.954Z,4.73
2017-07-17T21:36:39.118Z,3.33
2017-07-17T21:39:07.526Z,3.70
2017-07-17T21:41:36.670Z,3.33
2017-07-17T21:44:05.085Z,3.67
2017-07-17T21:46:33.495Z,4.00
2017-07-17T21:49:01.888Z,2.20
2017-07-17T21:51:30.257Z,5.37
2017-07-17T21:53:58.681Z,2.60
2017-07-17T21:56:27.085Z,2.57
2017-07-17T21:58:55.486Z,4.17
2017-07-17T22:01:24.641Z,2.83
2017-07-17T22:03:53.039Z,3.27
2017-07-17T22:06:21.436Z,3.77
2017-07-17T22:08:50.618Z,3.83
2017-07-17T22:11:19.790Z,5.20
2017-07-17T22:13:48.171Z,2.57
2017-07-17T22:16:16.583Z,2.10
2017-07-17T22:18:45.738Z,4.03
2017-07-17T22:21:14.136Z,1.80
2017-07-17T22:23:42.544Z,2.17
2017-07-17T22:26:11.684Z,3.43
2017-07-17T22:28:39.887Z,4.27
2017-07-17T22:31:08.329Z,2.13
2017-07-17T22:33:36.760Z,5.97
2017-07-17T22:36:05.930Z,2.23
2017-07-17T22:38:34.357Z,3.30
2017-07-17T22:41:02.768Z,3.40
2017-07-17T22:43:31.183Z,3.37
2017-07-17T22:46:00.387Z,3.50
2017-07-17T22:48:29.558Z,3.47
2017-07-17T22:50:57.960Z,3.17
2017-07-17T22:53:26.382Z,4.67
2017-07-17T22:55:54.772Z,4.87
2017-07-17T22:58:23.161Z,5.27
2017-07-17T23:00:51.594Z,2.57
2017-07-17T23:03:19.976Z,2.40
2017-07-17T23:05:48.384Z,3.23
2017-07-17T23:08:16.790Z,3.10
2017-07-17T23:10:45.193Z,3.97
2017-07-17T23:13:14.358Z,2.83
2017-07-17T23:15:42.766Z,6.43
2017-07-17T23:18:11.938Z,2.67
2017-07-17T23:20:40.345Z,3.20
2017-07-17T23:23:09.513Z,2.67
2017-07-17T23:25:37.914Z,3.90
2017-07-17T23:28:07.079Z,3.00
2017-07-17T23:30:35.490Z,4.33
2017-07-17T23:33:03.892Z,2.40
2017-07-17T23:35:32.277Z,3.73
2017-07-17T23:38:00.702Z,2.30
2017-07-17T23:40:29.115Z,4.60
2017-07-17T23:42:58.305Z,2.33
2017-07-17T23:45:26.768Z,3.83
2017-07-17T23:47:55.168Z,2.83
2017-07-17T23:50:23.579Z,5.77
2017-07-17T23:52:52.011Z,3.53
2017-07-17T23:55:21.198Z,4.23
2017-07-17T23:57:49.599Z,2.80
